Scottish Airport Reports

Civil airfields updated at H+20 and H+50
RAF airfields updated at H+50 only

EGPD - Aberdeen
Distance from station: NNE 19mi, 31km
Updated: 18/04/2019 11:50
Clear
Clear
 Wind from SE
Wind: SE 9 mph , 15 km/h
Temperature: 11°C
Dew Point: 6°C
Humidity: 72%
Barometer: 1030 hPa
Clouds: Clear
Visibility: 6 miles , 10 km
2019/04/18 10:50 EGPD 181050Z AUTO 14008KT 9999 NCD 11/06 Q1030 NOSIG
EGPN - Dundee
Distance from station: SW 41mi, 66km
Updated: 18/04/2019 11:50
Few Clouds
Few Clouds
 Wind from E
Wind: E 13 mph , 20 km/h
Temperature: 11°C
Dew Point: 8°C
Humidity: 82%
Barometer: 1029 hPa
Clouds: Few Clouds
Visibility: 6 miles , 9 km
Cloud details: Few Clouds 1000 ft
2019/04/18 10:50 EGPN 181050Z 10011KT 9000 FEW010 11/08 Q1029
 
EGQS - RAF Lossiemouth
Distance from station: NNW 63mi, 102km
Updated: 18/04/2019 11:50
Clear
Clear
 Wind from SE
Wind: SE 15 mph , 24 km/h
Temperature: 17°C
Dew Point: 3°C
Humidity: 39%
Barometer: 1028 hPa
Summary: Clear
Visibility: greater than 7 miles , 10 km
2019/04/18 10:50 EGQS 181050Z 13013KT CAVOK 17/03 Q1028 BLU NOSIG
EGPE - Inverness
Distance from station: WNW 73mi, 117km
Updated: 18/04/2019 11:50
Clear
Clear
 Wind from NE
Wind: NE 8 mph , 13 km/h
Temperature: 11°C
Dew Point: 6°C
Humidity: 72%
Barometer: 1028 hPa
Summary: Clear
Visibility: greater than 7 miles , 10 km
2019/04/18 10:50 EGPE 181050Z 05007KT CAVOK 11/06 Q1028
 
EGPH - Edinburgh
Distance from station: SSW 77mi, 125km
Updated: 18/04/2019 11:50
Few Clouds
Few Clouds
 Wind from ENE
Wind: ENE 15 mph , 24 km/h
Temperature: 11°C
Dew Point: 8°C
Humidity: 82%
Barometer: 1028 hPa
Clouds: Few Clouds
Visibility: 6 miles , 10 km
Cloud details: Few Clouds 1200 ft
2019/04/18 10:50 EGPH 181050Z 07013KT 9999 FEW012 11/08 Q1028
EGPC - Wick
Distance from station: NNW 107mi, 172km
Updated: 18/04/2019 11:50
Partly cloudy
Partly cloudy
 Wind from SE
Wind: SE 16 mph , 26 km/h
Temperature: 10°C
Wind Chill: 7°C
Dew Point: 8°C
Humidity: 88%
Barometer: 1030 hPa
Clouds: Partly cloudy
Visibility: 5 miles , 8 km
2019/04/18 10:50 EGPC 181050Z 14014KT 8000 NSC 10/08 Q1030
 
EGPF - Glasgow
Distance from station: SW 107mi, 172km
Updated: 18/04/2019 11:50
Few Clouds
Few Clouds
 Wind from E
Wind: E 14 mph , 22 km/h
Temperature: 12°C
Dew Point: 8°C
Humidity: 77%
Barometer: 1028 hPa
Clouds: Few Clouds
Visibility: 5 miles , 8 km
Cloud details: Few Clouds 1700 ft
2019/04/18 10:50 EGPF 181050Z AUTO 09012KT 8000 FEW017 12/08 Q1028
EGPK - Prestwick
Distance from station: SW 130mi, 209km
Updated: 18/04/2019 11:50
Few Clouds
Few Clouds
 Wind from ENE
Wind: ENE 9 mph , 15 km/h
Temperature: 14°C
Dew Point: 9°C
Humidity: 72%
Barometer: 1027 hPa
Clouds: Few Clouds
Visibility: 6 miles , 10 km
Cloud details: Few Clouds 4000 ft
2019/04/18 10:50 EGPK 181050Z 06008KT 9999 FEW040 14/09 Q1027
 
EGPA - Kirkwall, Orkney
Distance from station: N 140mi, 225km
Updated: 18/04/2019 11:50
Clear
Clear
 Wind from SSE
Wind: SSE 17 mph , 28 km/h
Temperature: 12°C
Dew Point: 7°C
Humidity: 72%
Barometer: 1030 hPa
Summary: Clear
Visibility: greater than 7 miles , 10 km
2019/04/18 10:50 EGPA 181050Z 16015KT CAVOK 12/07 Q1030
EGPO - Stornoway, Outer Hebrides
Distance from station: WNW 169mi, 273km
Updated: 18/04/2019 11:50
Clear
Clear
 Wind from SSE
Wind: SSE 6 mph , 9 km/h
Temperature: 14°C
Dew Point: 5°C
Humidity: 55%
Barometer: 1026 hPa
Summary: Clear
Visibility: greater than 7 miles , 10 km
2019/04/18 10:50 EGPO 181050Z 15005KT CAVOK 14/05 Q1026
 
EGPI - Islay, Inner Hebrides
Distance from station: WSW 172mi, 276km
Updated: 18/04/2019 11:50
Clear
Clear
 Wind from E
Wind: E 16 mph , 26 km/h
Temperature: 14°C
Dew Point: 8°C
Humidity: 67%
Barometer: 1025 hPa
Summary: Clear
Visibility: greater than 7 miles , 10 km
2019/04/18 10:50 EGPI 181050Z 09014KT 060V130 CAVOK 14/08 Q1025
EGPU - Tiree, Inner Hebrides
Distance from station: W 172mi, 276km
Updated: 18/04/2019 11:50
Partly cloudy
Partly cloudy
 Wind from ESE
Wind: ESE 20 mph , 31 km/h
Temperature: 13°C
Dew Point: 8°C
Humidity: 72%
Barometer: 1025 hPa
Clouds: Partly cloudy
Visibility: 6 miles , 10 km
2019/04/18 10:50 EGPU 181050Z 12017KT 9999 NSC 13/08 Q1025
 
EGPB - Sumburgh, Shetland
Distance from station: NNE 208mi, 332km
Updated: 18/04/2019 11:50
Clear
Clear
 Wind from S
Wind: S 13 mph , 20 km/h
Temperature: 10°C
Wind Chill: 7°C
Dew Point: 6°C
Humidity: 76%
Barometer: 1032 hPa
Summary: Clear
Visibility: greater than 7 miles , 10 km
2019/04/18 10:50 EGPB 181050Z 17011KT CAVOK 10/06 Q1032 NOSIG
EGPM - Scatsa, Shetland
Distance from station: NNE 245mi, 392km
Updated: 18/04/2019 11:50
Clear
Clear
 Wind from S
Wind: S 24 mph , 39 km/h
Temperature: 14°C
Dew Point: 4°C
Humidity: 51%
Barometer: 1030 hPa
Summary: Clear
Visibility: greater than 7 miles , 10 km
2019/04/18 10:50 EGPM 181050Z 18021KT CAVOK 14/04 Q1030 NOSIG
-->